createdAt,value
2023-03-16T00:00:17.243Z,0.00
2023-03-16T00:01:17.244Z,0.00
2023-03-16T00:02:17.320Z,0.00
2023-03-16T00:03:17.280Z,0.00
2023-03-16T00:04:17.256Z,0.00
2023-03-16T00:05:17.254Z,0.00
2023-03-16T00:06:17.262Z,0.00
2023-03-16T00:07:17.263Z,0.00
2023-03-16T00:08:17.271Z,0.00
2023-03-16T00:09:17.275Z,0.00
2023-03-16T00:10:17.273Z,0.00
2023-03-16T00:11:17.278Z,0.00
2023-03-16T00:12:17.293Z,0.00
2023-03-16T00:13:17.281Z,0.00
2023-03-16T00:14:17.284Z,0.00
2023-03-16T00:15:17.297Z,0.00
2023-03-16T00:16:17.359Z,0.00
2023-03-16T00:17:17.292Z,0.00
2023-03-16T00:18:17.319Z,0.00
2023-03-16T00:19:17.301Z,0.00
2023-03-16T00:20:17.311Z,0.00
2023-03-16T00:21:17.319Z,0.00
2023-03-16T00:22:17.311Z,0.00
2023-03-16T00:23:17.310Z,0.00
2023-03-16T00:24:17.319Z,0.00
2023-03-16T00:25:17.329Z,0.00
2023-03-16T00:26:17.330Z,0.00
2023-03-16T00:27:17.386Z,0.00
2023-03-16T00:28:17.335Z,0.00
2023-03-16T00:29:17.325Z,0.00
2023-03-16T00:30:17.336Z,0.00
2023-03-16T00:31:17.359Z,0.00
2023-03-16T00:32:17.356Z,0.00
2023-03-16T00:33:17.333Z,0.00
2023-03-16T00:34:17.366Z,0.00
2023-03-16T00:35:17.338Z,0.00
2023-03-16T00:36:17.352Z,0.00
2023-03-16T00:37:17.395Z,0.00
2023-03-16T00:38:17.351Z,0.00
2023-03-16T00:39:17.348Z,0.00
2023-03-16T00:40:17.357Z,0.00
2023-03-16T00:41:17.356Z,0.00
2023-03-16T00:42:17.358Z,0.00
2023-03-16T00:43:17.359Z,0.00
2023-03-16T00:44:17.365Z,0.00
2023-03-16T00:45:17.374Z,0.00
2023-03-16T00:46:17.477Z,0.00
2023-03-16T00:47:17.370Z,0.00
2023-03-16T00:48:17.378Z,0.00
2023-03-16T00:49:17.382Z,0.00
2023-03-16T00:50:17.401Z,0.00
2023-03-16T00:51:17.383Z,0.00
2023-03-16T00:52:17.393Z,0.00
2023-03-16T00:53:17.387Z,0.00
2023-03-16T00:54:17.391Z,0.00
2023-03-16T00:55:17.393Z,0.00
2023-03-16T00:56:17.398Z,0.00
2023-03-16T00:57:17.411Z,0.00
2023-03-16T00:58:17.412Z,0.00
2023-03-16T00:59:17.402Z,0.00
2023-03-16T01:00:17.409Z,0.00
2023-03-16T01:01:17.452Z,0.00
2023-03-16T01:02:17.414Z,0.00
2023-03-16T01:03:17.487Z,0.00
2023-03-16T01:04:17.433Z,0.00
2023-03-16T01:05:17.421Z,0.00
2023-03-16T01:06:17.478Z,0.00
2023-03-16T01:07:17.424Z,0.00
2023-03-16T01:08:17.436Z,0.00
2023-03-16T01:09:17.445Z,0.00
2023-03-16T01:10:17.438Z,0.00
2023-03-16T01:11:17.505Z,0.00
2023-03-16T01:12:17.471Z,0.00
2023-03-16T01:13:17.446Z,0.00
2023-03-16T01:14:17.450Z,0.00
2023-03-16T01:15:17.450Z,0.00
2023-03-16T01:16:17.481Z,0.00
2023-03-16T01:17:17.489Z,0.00
2023-03-16T01:18:17.475Z,0.00
2023-03-16T01:19:17.462Z,0.00
2023-03-16T01:20:17.471Z,0.00
2023-03-16T01:21:17.477Z,0.00
2023-03-16T01:22:17.496Z,0.00
2023-03-16T01:23:17.475Z,0.00
2023-03-16T01:24:17.482Z,0.00
2023-03-16T01:25:17.484Z,0.00
2023-03-16T01:26:17.484Z,0.00
2023-03-16T01:27:17.486Z,0.00
2023-03-16T01:28:17.489Z,0.00
2023-03-16T01:29:17.490Z,0.00
2023-03-16T01:30:17.509Z,0.00
2023-03-16T01:31:17.617Z,0.00
2023-03-16T01:32:17.517Z,0.00
2023-03-16T01:33:17.502Z,0.00
2023-03-16T01:34:17.507Z,0.00
2023-03-16T01:35:17.505Z,0.00
2023-03-16T01:36:17.514Z,0.00
2023-03-16T01:37:17.515Z,0.00
2023-03-16T01:38:17.540Z,0.00
2023-03-16T01:39:17.518Z,0.00
2023-03-16T01:40:17.533Z,0.00
2023-03-16T01:41:17.534Z,0.00
2023-03-16T01:42:17.536Z,0.00
2023-03-16T01:43:17.528Z,0.00
2023-03-16T01:44:17.535Z,0.00
2023-03-16T01:45:17.533Z,0.00
2023-03-16T01:46:17.661Z,0.00
2023-03-16T01:47:17.538Z,0.00
2023-03-16T01:48:17.546Z,0.00
2023-03-16T01:49:17.544Z,0.00
2023-03-16T01:50:17.556Z,0.00
2023-03-16T01:51:17.555Z,0.00
2023-03-16T01:52:17.572Z,0.00
2023-03-16T01:53:17.562Z,0.00
2023-03-16T01:54:17.584Z,0.00
2023-03-16T01:55:17.564Z,0.00
2023-03-16T01:56:17.567Z,0.00
2023-03-16T01:57:17.572Z,0.00
2023-03-16T01:58:17.576Z,0.00
2023-03-16T01:59:17.571Z,0.00
2023-03-16T02:00:17.587Z,0.00
2023-03-16T02:01:17.722Z,0.00
2023-03-16T02:02:17.584Z,0.00
2023-03-16T02:03:17.587Z,0.00
2023-03-16T02:04:17.677Z,0.00
2023-03-16T02:05:17.594Z,0.00
2023-03-16T02:06:17.593Z,0.00
2023-03-16T02:07:17.601Z,0.00
2023-03-16T02:08:17.602Z,0.00
2023-03-16T02:09:17.607Z,0.00
2023-03-16T02:10:17.627Z,0.00
2023-03-16T02:11:17.613Z,0.00
2023-03-16T02:12:17.614Z,0.00
2023-03-16T02:13:17.619Z,0.00
2023-03-16T02:14:17.616Z,0.00
2023-03-16T02:15:17.641Z,0.00
2023-03-16T02:16:17.671Z,0.00
2023-03-16T02:17:17.642Z,0.00
2023-03-16T02:18:17.630Z,0.00
2023-03-16T02:19:17.633Z,0.00
2023-03-16T02:20:17.646Z,0.00
2023-03-16T02:21:17.642Z,0.00
2023-03-16T02:22:17.650Z,0.00
2023-03-16T02:23:17.648Z,0.00
2023-03-16T02:24:17.653Z,0.00
2023-03-16T02:25:17.653Z,0.00
2023-03-16T02:26:17.672Z,0.00
2023-03-16T02:27:17.669Z,0.00
2023-03-16T02:28:17.658Z,0.00
2023-03-16T02:29:17.663Z,0.00
2023-03-16T02:30:17.682Z,0.00
2023-03-16T02:31:17.765Z,0.00
2023-03-16T02:32:17.679Z,0.00
2023-03-16T02:33:17.699Z,0.00
2023-03-16T02:34:17.681Z,0.00
2023-03-16T02:35:17.681Z,0.00
2023-03-16T02:36:17.681Z,0.00
2023-03-16T02:37:17.691Z,0.00
2023-03-16T02:38:17.684Z,0.00
2023-03-16T02:39:17.712Z,0.00
2023-03-16T02:40:17.693Z,0.00
2023-03-16T02:41:17.710Z,0.00
2023-03-16T02:42:17.721Z,0.00
2023-03-16T02:43:17.707Z,0.00
2023-03-16T02:44:17.701Z,0.00
2023-03-16T02:45:17.707Z,0.00
2023-03-16T02:46:17.766Z,0.00
2023-03-16T02:47:17.712Z,0.00
2023-03-16T02:48:17.714Z,0.00
2023-03-16T02:49:17.726Z,0.00
2023-03-16T02:50:17.716Z,0.00
2023-03-16T02:51:17.726Z,0.00
2023-03-16T02:52:17.723Z,0.00
2023-03-16T02:53:17.735Z,0.00
2023-03-16T02:54:17.732Z,0.00
2023-03-16T02:55:17.735Z,0.00
2023-03-16T02:56:17.744Z,0.00
2023-03-16T02:57:17.745Z,0.00
2023-03-16T02:58:17.759Z,0.00
2023-03-16T02:59:17.747Z,0.00
2023-03-16T03:00:17.754Z,0.00
2023-03-16T03:01:17.751Z,0.00
2023-03-16T03:02:17.771Z,0.00
2023-03-16T03:03:17.852Z,0.00
2023-03-16T03:04:17.754Z,0.00
2023-03-16T03:05:17.764Z,0.00
2023-03-16T03:06:17.764Z,0.00
2023-03-16T03:07:17.773Z,0.00
2023-03-16T03:08:17.766Z,0.00
2023-03-16T03:09:17.775Z,0.00
2023-03-16T03:10:17.775Z,0.00
2023-03-16T03:11:17.783Z,0.00
2023-03-16T03:12:17.777Z,0.00
2023-03-16T03:13:17.794Z,0.00
2023-03-16T03:14:17.808Z,0.00
2023-03-16T03:15:17.790Z,0.00
2023-03-16T03:16:17.872Z,0.00
2023-03-16T03:17:17.793Z,0.00
2023-03-16T03:18:17.794Z,0.00
2023-03-16T03:19:17.799Z,0.00
2023-03-16T03:20:17.809Z,0.00
2023-03-16T03:21:17.805Z,0.00
2023-03-16T03:22:17.803Z,0.00
2023-03-16T03:23:17.817Z,0.00
2023-03-16T03:24:17.814Z,0.00
2023-03-16T03:25:17.819Z,0.00
2023-03-16T03:26:17.814Z,0.00
2023-03-16T03:27:17.819Z,0.00
2023-03-16T03:28:17.830Z,0.00
2023-03-16T03:29:17.829Z,0.00
2023-03-16T03:30:17.853Z,0.00
2023-03-16T03:31:17.888Z,0.00
2023-03-16T03:32:17.832Z,0.00
2023-03-16T03:33:17.838Z,0.00
2023-03-16T03:34:17.835Z,0.00
2023-03-16T03:35:17.865Z,0.00
2023-03-16T03:36:17.854Z,0.00
2023-03-16T03:37:17.845Z,0.00
2023-03-16T03:38:17.882Z,0.00
2023-03-16T03:39:17.851Z,0.00
2023-03-16T03:40:17.858Z,0.00
2023-03-16T03:41:17.859Z,0.00
2023-03-16T03:42:17.861Z,0.00
2023-03-16T03:43:17.868Z,0.00
2023-03-16T03:44:17.876Z,0.00
2023-03-16T03:45:17.871Z,0.00
2023-03-16T03:46:18.063Z,0.00
2023-03-16T03:47:17.875Z,0.00
2023-03-16T03:48:17.881Z,0.00
2023-03-16T03:49:17.882Z,0.00
2023-03-16T03:50:17.888Z,0.00
2023-03-16T03:51:17.885Z,0.00
2023-03-16T03:52:17.888Z,0.00
2023-03-16T03:53:17.893Z,0.00
2023-03-16T03:54:17.892Z,0.00
2023-03-16T03:55:17.899Z,0.00
2023-03-16T03:56:17.898Z,0.00
2023-03-16T03:57:19.103Z,0.00
2023-03-16T03:58:17.907Z,0.00
2023-03-16T03:59:17.907Z,0.00
2023-03-16T04:00:17.903Z,0.00
2023-03-16T04:01:17.910Z,0.00
2023-03-16T04:02:18.023Z,0.00
2023-03-16T04:03:17.959Z,0.00
2023-03-16T04:04:17.914Z,0.00
2023-03-16T04:05:17.936Z,0.00
2023-03-16T04:06:17.918Z,0.00
2023-03-16T04:07:17.927Z,0.00
2023-03-16T04:08:17.927Z,0.00
2023-03-16T04:09:17.936Z,0.00
2023-03-16T04:10:17.936Z,0.00
2023-03-16T04:11:17.933Z,0.00
2023-03-16T04:12:17.938Z,0.00
2023-03-16T04:13:17.943Z,0.00
2023-03-16T04:14:17.945Z,0.00
2023-03-16T04:15:17.947Z,0.00
2023-03-16T04:16:17.995Z,0.00
2023-03-16T04:17:17.951Z,0.00
2023-03-16T04:18:17.974Z,0.00
2023-03-16T04:19:17.968Z,0.00
2023-03-16T04:20:17.957Z,0.00
2023-03-16T04:21:17.964Z,0.00
2023-03-16T04:22:17.961Z,0.00
2023-03-16T04:23:17.971Z,0.00
2023-03-16T04:24:17.982Z,0.00
2023-03-16T04:25:17.977Z,0.00
2023-03-16T04:26:17.978Z,0.00
2023-03-16T04:27:17.982Z,0.00
2023-03-16T04:28:18.142Z,0.00
2023-03-16T04:29:18.013Z,0.00
2023-03-16T04:30:17.982Z,0.00
2023-03-16T04:31:18.034Z,0.00
2023-03-16T04:32:17.999Z,0.00
2023-03-16T04:33:17.997Z,0.00
2023-03-16T04:34:18.018Z,0.00
2023-03-16T04:35:18.001Z,0.00
2023-03-16T04:36:18.004Z,0.00
2023-03-16T04:37:18.009Z,0.00
2023-03-16T04:38:18.005Z,0.00
2023-03-16T04:39:18.016Z,0.00
2023-03-16T04:40:18.020Z,0.00
2023-03-16T04:41:18.022Z,0.00
2023-03-16T04:42:18.017Z,0.00
2023-03-16T04:43:18.028Z,0.00
2023-03-16T04:44:18.022Z,0.00
2023-03-16T04:45:18.029Z,0.00
2023-03-16T04:46:18.094Z,0.00
2023-03-16T04:47:18.034Z,0.00
2023-03-16T04:48:18.037Z,0.00
2023-03-16T04:49:18.043Z,0.00
2023-03-16T04:50:18.067Z,0.00
2023-03-16T04:51:18.050Z,0.00
2023-03-16T04:52:18.048Z,0.00
2023-03-16T04:53:18.075Z,0.00
2023-03-16T04:54:18.049Z,0.00
2023-03-16T04:55:18.057Z,0.00
2023-03-16T04:56:18.063Z,0.00
2023-03-16T04:57:18.062Z,0.00
2023-03-16T04:58:18.079Z,0.00
2023-03-16T04:59:18.067Z,0.00
2023-03-16T05:00:18.074Z,0.00
2023-03-16T05:01:18.118Z,0.00
2023-03-16T05:02:18.077Z,0.00
2023-03-16T05:03:18.083Z,0.00
2023-03-16T05:04:19.749Z,0.00
2023-03-16T05:05:18.102Z,0.00
2023-03-16T05:06:18.106Z,0.00
2023-03-16T05:07:18.092Z,0.00
2023-03-16T05:08:18.091Z,0.00
2023-03-16T05:09:18.097Z,0.00
2023-03-16T05:10:18.097Z,0.00
2023-03-16T05:11:18.114Z,0.00
2023-03-16T05:12:18.106Z,0.00
2023-03-16T05:13:18.124Z,0.00
2023-03-16T05:14:18.109Z,0.00
2023-03-16T05:15:18.118Z,0.00
2023-03-16T05:16:18.186Z,0.00
2023-03-16T05:17:18.121Z,0.00
2023-03-16T05:18:18.124Z,0.00
2023-03-16T05:19:18.126Z,0.00
2023-03-16T05:20:18.143Z,4.00
2023-03-16T05:21:18.136Z,0.00
2023-03-16T05:22:18.152Z,0.00
2023-03-16T05:23:18.139Z,4.00
2023-03-16T05:24:18.156Z,0.00
2023-03-16T05:25:18.148Z,0.00
2023-03-16T05:26:18.146Z,0.00
2023-03-16T05:27:18.152Z,4.00
2023-03-16T05:28:18.153Z,4.00
2023-03-16T05:29:18.157Z,4.00
2023-03-16T05:30:18.160Z,4.00
2023-03-16T05:31:18.179Z,4.00
2023-03-16T05:32:18.169Z,8.00
2023-03-16T05:33:18.172Z,8.00
2023-03-16T05:34:18.167Z,8.00
2023-03-16T05:35:18.175Z,8.00
2023-03-16T05:36:18.181Z,12.00
2023-03-16T05:37:18.182Z,12.00
2023-03-16T05:38:18.202Z,16.00
2023-03-16T05:39:18.193Z,16.00
2023-03-16T05:40:18.244Z,16.00
2023-03-16T05:41:18.197Z,20.00
2023-03-16T05:42:18.193Z,20.00
2023-03-16T05:43:18.200Z,24.00
2023-03-16T05:44:18.202Z,28.00
2023-03-16T05:45:18.210Z,28.00
2023-03-16T05:46:20.647Z,32.00
2023-03-16T05:47:18.222Z,36.00
2023-03-16T05:48:18.212Z,40.00
2023-03-16T05:49:18.219Z,44.00
2023-03-16T05:50:18.238Z,48.00
2023-03-16T05:51:18.234Z,52.00
2023-03-16T05:52:18.230Z,56.00
2023-03-16T05:53:18.231Z,64.00
2023-03-16T05:54:18.254Z,68.00
2023-03-16T05:55:18.233Z,72.00
2023-03-16T05:56:18.234Z,80.00
2023-03-16T05:57:18.242Z,80.00
2023-03-16T05:58:18.240Z,88.00
2023-03-16T05:59:18.258Z,92.00
2023-03-16T06:00:18.274Z,96.00
2023-03-16T06:01:18.257Z,104.00
2023-03-16T06:02:18.256Z,108.00
2023-03-16T06:03:18.348Z,112.00
2023-03-16T06:04:18.317Z,120.00
2023-03-16T06:05:18.268Z,124.00
2023-03-16T06:06:18.268Z,128.00
2023-03-16T06:07:18.271Z,132.00
2023-03-16T06:08:18.270Z,132.00
2023-03-16T06:09:18.277Z,136.00
2023-03-16T06:10:18.335Z,140.00
2023-03-16T06:11:18.297Z,136.00
2023-03-16T06:12:18.284Z,140.00
2023-03-16T06:13:18.290Z,140.00
2023-03-16T06:14:18.304Z,144.00
2023-03-16T06:15:18.296Z,140.00
2023-03-16T06:16:18.366Z,144.00
2023-03-16T06:17:18.314Z,144.00
2023-03-16T06:18:18.301Z,144.00
2023-03-16T06:19:18.306Z,148.00
2023-03-16T06:20:18.309Z,148.00
2023-03-16T06:21:18.313Z,152.00
2023-03-16T06:22:18.429Z,152.00
2023-03-16T06:23:18.319Z,152.00
2023-03-16T06:24:18.324Z,152.00
2023-03-16T06:25:18.324Z,152.00
2023-03-16T06:26:18.365Z,148.00
2023-03-16T06:27:18.329Z,152.00
2023-03-16T06:28:18.341Z,156.00
2023-03-16T06:29:18.342Z,152.00
2023-03-16T06:30:18.351Z,156.00
2023-03-16T06:31:18.371Z,156.00
2023-03-16T06:32:18.349Z,164.00
2023-03-16T06:33:18.351Z,168.00
2023-03-16T06:34:18.367Z,172.00
2023-03-16T06:35:18.360Z,176.00
2023-03-16T06:36:18.367Z,180.00
2023-03-16T06:37:18.365Z,184.00
2023-03-16T06:38:18.370Z,192.00
2023-03-16T06:39:18.370Z,196.00
2023-03-16T06:40:18.377Z,208.00
2023-03-16T06:41:18.379Z,212.00
2023-03-16T06:42:18.412Z,220.00
2023-03-16T06:43:18.393Z,228.00
2023-03-16T06:44:18.390Z,240.00
2023-03-16T06:45:18.392Z,252.00
2023-03-16T06:46:18.475Z,260.00
2023-03-16T06:47:18.398Z,272.00
2023-03-16T06:48:18.402Z,280.00
2023-03-16T06:49:18.404Z,288.00
2023-03-16T06:50:18.408Z,300.00
2023-03-16T06:51:18.422Z,308.00
2023-03-16T06:52:18.432Z,316.00
2023-03-16T06:53:18.421Z,324.00
2023-03-16T06:54:18.423Z,332.00
2023-03-16T06:55:18.425Z,344.00
2023-03-16T06:56:18.432Z,352.00
2023-03-16T06:57:18.436Z,364.00
2023-03-16T06:58:18.549Z,372.00
2023-03-16T06:59:18.439Z,376.00
2023-03-16T07:00:18.450Z,384.00
2023-03-16T07:01:18.561Z,388.00
2023-03-16T07:02:18.449Z,392.00
2023-03-16T07:03:18.451Z,396.00
2023-03-16T07:04:18.653Z,400.00
2023-03-16T07:05:18.456Z,400.00
2023-03-16T07:06:18.471Z,400.00
2023-03-16T07:07:18.475Z,400.00
2023-03-16T07:08:18.473Z,404.00
2023-03-16T07:09:18.469Z,400.00
2023-03-16T07:10:18.488Z,400.00
2023-03-16T07:11:18.474Z,404.00
2023-03-16T07:12:18.492Z,404.00
2023-03-16T07:13:18.485Z,404.00
2023-03-16T07:14:18.513Z,412.00
2023-03-16T07:15:18.489Z,432.00
2023-03-16T07:16:18.553Z,508.00
2023-03-16T07:17:18.500Z,592.00
2023-03-16T07:18:18.503Z,600.00
2023-03-16T07:19:18.504Z,612.00
2023-03-16T07:20:18.509Z,640.00
2023-03-16T07:21:18.511Z,604.00
2023-03-16T07:22:18.525Z,620.00
2023-03-16T07:23:18.541Z,680.00
2023-03-16T07:24:18.535Z,648.00
2023-03-16T07:25:18.533Z,628.00
2023-03-16T07:26:18.536Z,616.00
2023-03-16T07:27:18.534Z,652.00
2023-03-16T07:28:18.540Z,656.00
2023-03-16T07:29:18.556Z,672.00
2023-03-16T07:30:18.570Z,624.00
2023-03-16T07:31:18.612Z,624.00
2023-03-16T07:32:18.556Z,748.00
2023-03-16T07:33:18.554Z,700.00
2023-03-16T07:34:18.571Z,680.00
2023-03-16T07:35:18.584Z,740.00
2023-03-16T07:36:18.620Z,740.00
2023-03-16T07:37:25.008Z,684.00
2023-03-16T07:38:18.589Z,768.00
2023-03-16T07:39:18.585Z,796.00
2023-03-16T07:40:18.588Z,848.00
2023-03-16T07:41:18.593Z,884.00
2023-03-16T07:42:18.599Z,936.00
2023-03-16T07:43:18.600Z,1104.00
2023-03-16T07:44:18.610Z,1200.00
2023-03-16T07:45:18.611Z,1260.00
2023-03-16T07:46:18.735Z,1296.00
2023-03-16T07:47:18.617Z,1224.00
2023-03-16T07:48:18.625Z,1072.00
2023-03-16T07:49:18.626Z,1236.00
2023-03-16T07:50:18.632Z,1284.00
2023-03-16T07:51:18.643Z,1272.00
2023-03-16T07:52:18.668Z,1340.00
2023-03-16T07:53:18.661Z,1360.00
2023-03-16T07:54:18.653Z,1240.00
2023-03-16T07:55:18.658Z,1424.00
2023-03-16T07:56:18.661Z,1424.00
2023-03-16T07:57:18.661Z,1428.00
2023-03-16T07:58:18.683Z,1368.00
2023-03-16T07:59:20.786Z,1368.00
2023-03-16T08:00:18.681Z,1360.00
2023-03-16T08:01:18.682Z,1348.00
2023-03-16T08:02:18.781Z,1272.00
2023-03-16T08:03:18.746Z,1212.00
2023-03-16T08:04:18.699Z,1216.00
2023-03-16T08:05:18.706Z,1212.00
2023-03-16T08:06:18.725Z,1208.00
2023-03-16T08:07:18.713Z,1216.00
2023-03-16T08:08:18.729Z,1216.00
2023-03-16T08:09:18.721Z,1240.00
2023-03-16T08:10:18.732Z,1260.00
2023-03-16T08:11:18.764Z,1268.00
2023-03-16T08:12:18.750Z,1244.00
2023-03-16T08:13:18.762Z,1252.00
2023-03-16T08:14:18.752Z,1272.00
2023-03-16T08:15:18.758Z,1224.00
2023-03-16T08:16:21.890Z,1232.00
2023-03-16T08:17:18.771Z,1252.00
2023-03-16T08:18:18.800Z,1280.00
2023-03-16T08:19:18.780Z,1236.00
2023-03-16T08:20:18.789Z,1180.00
2023-03-16T08:21:18.790Z,1192.00
2023-03-16T08:22:18.808Z,1184.00
2023-03-16T08:23:18.804Z,1192.00
2023-03-16T08:24:18.824Z,1212.00
2023-03-16T08:25:18.858Z,1184.00
2023-03-16T08:26:18.826Z,1164.00
2023-03-16T08:27:18.846Z,1168.00
2023-03-16T08:28:18.839Z,1156.00
2023-03-16T08:29:18.838Z,1200.00
2023-03-16T08:30:18.856Z,1164.00
2023-03-16T08:31:18.924Z,1140.00
2023-03-16T08:32:18.866Z,1160.00
2023-03-16T08:33:20.225Z,1476.00
2023-03-16T08:34:18.900Z,1300.00
2023-03-16T08:35:18.882Z,1272.00
2023-03-16T08:36:18.883Z,1388.00
2023-03-16T08:37:18.896Z,1304.00
2023-03-16T08:38:18.903Z,1192.00
2023-03-16T08:39:18.930Z,1128.00
2023-03-16T08:40:18.922Z,1060.00
2023-03-16T08:41:18.914Z,1056.00
2023-03-16T08:42:18.923Z,1180.00
2023-03-16T08:43:18.935Z,1148.00
2023-03-16T08:44:18.938Z,1168.00
2023-03-16T08:45:18.940Z,1180.00
2023-03-16T08:46:18.987Z,1180.00
2023-03-16T08:47:18.953Z,1180.00
2023-03-16T08:48:18.958Z,1192.00
2023-03-16T08:49:18.963Z,1204.00
2023-03-16T08:50:18.994Z,1236.00
2023-03-16T08:51:18.972Z,1232.00
2023-03-16T08:52:18.994Z,1236.00
2023-03-16T08:53:18.987Z,1204.00
2023-03-16T08:54:18.997Z,1204.00
2023-03-16T08:55:19.008Z,1220.00
2023-03-16T08:56:19.010Z,1236.00
2023-03-16T08:57:19.014Z,1268.00
2023-03-16T08:58:19.022Z,1288.00
2023-03-16T08:59:29.130Z,1288.00
2023-03-16T09:00:19.066Z,1324.00
2023-03-16T09:01:19.247Z,1240.00
2023-03-16T09:02:19.048Z,1256.00
2023-03-16T09:03:19.052Z,1260.00
2023-03-16T09:04:19.131Z,1240.00
2023-03-16T09:05:19.070Z,1248.00
2023-03-16T09:06:19.119Z,1260.00
2023-03-16T09:07:19.087Z,1300.00
2023-03-16T09:08:19.092Z,1632.00
2023-03-16T09:09:19.095Z,1576.00
2023-03-16T09:10:19.109Z,1340.00
2023-03-16T09:11:19.130Z,1364.00
2023-03-16T09:12:19.122Z,1648.00
2023-03-16T09:13:19.124Z,1628.00
2023-03-16T09:14:19.131Z,1572.00
2023-03-16T09:15:19.139Z,1392.00
2023-03-16T09:16:19.278Z,1476.00
2023-03-16T09:17:19.154Z,1480.00
2023-03-16T09:18:19.163Z,1240.00
2023-03-16T09:19:19.167Z,1296.00
2023-03-16T09:20:26.340Z,1784.00
2023-03-16T09:21:19.184Z,2608.00
2023-03-16T09:22:19.245Z,2604.00
2023-03-16T09:23:19.203Z,2132.00
2023-03-16T09:24:19.229Z,1364.00
2023-03-16T09:25:19.215Z,1408.00
2023-03-16T09:26:19.225Z,1880.00
2023-03-16T09:27:19.310Z,2752.00
2023-03-16T09:28:21.682Z,2620.00
2023-03-16T09:29:19.257Z,2332.00
2023-03-16T09:30:19.258Z,2420.00
2023-03-16T09:31:19.281Z,2624.00
2023-03-16T09:32:19.276Z,2836.00
2023-03-16T09:33:19.282Z,3028.00
2023-03-16T09:34:19.309Z,3040.00
2023-03-16T09:35:19.312Z,3108.00
2023-03-16T09:36:19.434Z,3176.00
2023-03-16T09:37:19.314Z,3220.00
2023-03-16T09:38:19.479Z,3224.00
2023-03-16T09:39:19.329Z,3252.00
2023-03-16T09:40:19.340Z,3256.00
2023-03-16T09:41:19.346Z,3272.00
2023-03-16T09:42:19.357Z,3288.00
2023-03-16T09:43:19.365Z,3240.00
2023-03-16T09:44:19.376Z,3280.00
2023-03-16T09:45:19.383Z,3392.00
2023-03-16T09:46:19.437Z,3444.00
2023-03-16T09:47:19.405Z,3452.00
2023-03-16T09:48:19.416Z,3416.00
2023-03-16T09:49:19.461Z,3472.00
2023-03-16T09:50:19.466Z,3536.00
2023-03-16T09:51:19.502Z,3604.00
2023-03-16T09:52:19.458Z,3624.00
2023-03-16T09:53:19.457Z,3532.00
2023-03-16T09:54:19.506Z,3564.00
2023-03-16T09:55:19.489Z,3556.00
2023-03-16T09:56:19.488Z,3504.00
2023-03-16T09:57:19.499Z,3532.00
2023-03-16T09:58:19.520Z,3576.00
2023-03-16T09:59:19.514Z,3660.00
2023-03-16T10:00:19.534Z,3800.00
2023-03-16T10:01:19.606Z,3792.00
2023-03-16T10:02:19.548Z,3800.00
2023-03-16T10:03:19.550Z,3848.00
2023-03-16T10:04:19.705Z,3860.00
2023-03-16T10:05:19.585Z,3900.00
2023-03-16T10:06:19.593Z,3944.00
2023-03-16T10:07:19.605Z,3916.00
2023-03-16T10:08:19.605Z,3772.00
2023-03-16T10:09:19.644Z,3816.00
2023-03-16T10:10:19.644Z,3744.00
2023-03-16T10:11:19.639Z,3708.00
2023-03-16T10:12:19.662Z,3748.00
2023-03-16T10:13:19.657Z,3952.00
2023-03-16T10:14:19.678Z,3780.00
2023-03-16T10:15:19.742Z,3780.00
2023-03-16T10:16:19.710Z,3428.00
2023-03-16T10:17:19.701Z,3368.00
2023-03-16T10:18:19.714Z,3296.00
2023-03-16T10:19:19.737Z,3336.00
2023-03-16T10:20:19.740Z,3496.00
2023-03-16T10:21:19.742Z,3520.00
2023-03-16T10:22:19.766Z,3440.00
2023-03-16T10:23:19.771Z,3352.00
2023-03-16T10:24:19.782Z,3232.00
2023-03-16T10:25:19.790Z,3368.00
2023-03-16T10:26:19.835Z,3592.00
2023-03-16T10:27:19.810Z,3504.00
2023-03-16T10:28:19.824Z,3528.00
2023-03-16T10:29:19.834Z,3704.00
2023-03-16T10:30:19.955Z,4044.00
2023-03-16T10:31:19.954Z,3940.00
2023-03-16T10:32:19.878Z,3952.00
2023-03-16T10:33:19.895Z,3916.00
2023-03-16T10:34:19.906Z,3960.00
2023-03-16T10:35:19.922Z,3896.00
2023-03-16T10:36:19.976Z,3920.00
2023-03-16T10:37:19.930Z,4132.00
2023-03-16T10:38:19.940Z,4108.00
2023-03-16T10:39:19.956Z,4044.00
2023-03-16T10:40:19.976Z,4108.00
2023-03-16T10:41:19.976Z,3984.00
2023-03-16T10:42:20.033Z,3896.00
2023-03-16T10:43:20.008Z,3848.00
2023-03-16T10:44:20.025Z,3840.00
2023-03-16T10:45:20.025Z,3916.00
2023-03-16T10:46:20.158Z,3944.00
2023-03-16T10:47:20.118Z,3904.00
2023-03-16T10:48:20.090Z,3740.00
2023-03-16T10:49:20.088Z,4108.00
2023-03-16T10:50:20.149Z,4156.00
2023-03-16T10:51:20.109Z,4192.00
2023-03-16T10:52:20.112Z,4160.00
2023-03-16T10:53:20.150Z,4140.00
2023-03-16T10:54:20.144Z,4064.00
2023-03-16T10:55:20.161Z,3940.00
2023-03-16T10:56:20.173Z,3892.00
2023-03-16T10:57:20.187Z,4052.00
2023-03-16T10:58:20.212Z,4128.00
2023-03-16T10:59:20.212Z,4228.00
2023-03-16T11:00:20.231Z,4104.00
2023-03-16T11:01:20.238Z,4100.00
2023-03-16T11:02:20.249Z,4060.00
2023-03-16T11:03:20.267Z,4020.00
2023-03-16T11:04:20.300Z,3968.00
2023-03-16T11:05:20.288Z,3936.00
2023-03-16T11:06:20.302Z,3848.00
2023-03-16T11:07:20.314Z,3984.00
2023-03-16T11:08:20.333Z,4144.00
2023-03-16T11:09:20.384Z,4072.00
2023-03-16T11:10:20.358Z,4132.00
2023-03-16T11:11:20.378Z,4396.00
2023-03-16T11:12:20.400Z,4500.00
2023-03-16T11:13:20.400Z,4236.00
2023-03-16T11:14:20.434Z,3968.00
2023-03-16T11:15:26.339Z,4120.00
2023-03-16T11:16:20.503Z,4064.00
2023-03-16T11:17:20.652Z,4316.00
2023-03-16T11:18:20.458Z,4348.00
2023-03-16T11:19:20.482Z,4360.00
2023-03-16T11:20:20.486Z,4328.00
2023-03-16T11:21:20.507Z,4276.00
2023-03-16T11:22:20.531Z,4284.00
2023-03-16T11:23:20.531Z,4316.00
2023-03-16T11:24:20.547Z,4272.00
2023-03-16T11:25:20.557Z,4296.00
2023-03-16T11:26:20.569Z,4296.00
2023-03-16T11:27:20.594Z,4312.00
2023-03-16T11:28:20.594Z,4344.00
2023-03-16T11:29:20.611Z,4428.00
2023-03-16T11:30:20.703Z,4464.00
2023-03-16T11:31:20.762Z,4476.00
2023-03-16T11:32:20.799Z,4468.00
2023-03-16T11:33:20.672Z,4248.00
2023-03-16T11:34:20.677Z,4276.00
2023-03-16T11:35:20.707Z,4308.00
2023-03-16T11:36:20.740Z,4284.00
2023-03-16T11:37:20.723Z,4300.00
2023-03-16T11:38:20.732Z,4200.00
2023-03-16T11:39:20.762Z,4344.00
2023-03-16T11:40:20.757Z,4320.00
2023-03-16T11:41:20.785Z,4344.00
2023-03-16T11:42:20.784Z,4384.00
2023-03-16T11:43:20.805Z,4400.00
2023-03-16T11:44:20.813Z,4400.00
2023-03-16T11:45:20.834Z,4420.00
2023-03-16T11:46:21.012Z,4416.00
2023-03-16T11:47:20.857Z,4396.00
2023-03-16T11:48:20.867Z,4380.00
2023-03-16T11:49:20.888Z,4392.00
2023-03-16T11:50:20.892Z,4396.00
2023-03-16T11:51:20.914Z,4396.00
2023-03-16T11:52:20.918Z,4380.00
2023-03-16T11:53:20.933Z,4364.00
2023-03-16T11:54:20.941Z,4368.00
2023-03-16T11:55:20.960Z,4384.00
2023-03-16T11:56:20.979Z,4388.00
2023-03-16T11:57:20.987Z,4384.00
2023-03-16T11:58:20.996Z,4380.00
2023-03-16T11:59:21.011Z,4376.00
2023-03-16T12:00:21.025Z,4372.00
2023-03-16T12:01:21.227Z,4376.00
2023-03-16T12:02:21.151Z,4376.00
2023-03-16T12:03:21.091Z,4368.00
2023-03-16T12:04:21.140Z,4364.00
2023-03-16T12:05:21.093Z,4364.00
2023-03-16T12:06:23.358Z,4364.00
2023-03-16T12:07:21.117Z,4360.00
2023-03-16T12:08:21.127Z,4360.00
2023-03-16T12:09:21.178Z,4352.00
2023-03-16T12:10:21.153Z,4352.00
2023-03-16T12:11:21.171Z,4352.00
2023-03-16T12:12:21.182Z,4344.00
2023-03-16T12:13:21.213Z,4344.00
2023-03-16T12:14:21.217Z,4336.00
2023-03-16T12:15:21.236Z,4328.00
2023-03-16T12:16:21.337Z,4328.00
2023-03-16T12:17:21.252Z,4324.00
2023-03-16T12:18:21.321Z,4312.00
2023-03-16T12:19:21.284Z,4316.00
2023-03-16T12:20:21.292Z,4296.00
2023-03-16T12:21:21.313Z,4308.00
2023-03-16T12:22:21.319Z,4304.00
2023-03-16T12:23:21.335Z,4288.00
2023-03-16T12:24:21.356Z,4284.00
2023-03-16T12:25:21.361Z,4296.00
2023-03-16T12:26:21.385Z,4288.00
2023-03-16T12:27:21.396Z,4280.00
2023-03-16T12:28:21.449Z,4264.00
2023-03-16T12:29:21.419Z,4256.00
2023-03-16T12:30:21.431Z,4224.00
2023-03-16T12:31:21.472Z,4244.00
2023-03-16T12:32:21.468Z,4268.00
2023-03-16T12:33:21.486Z,4264.00
2023-03-16T12:34:21.586Z,4140.00
2023-03-16T12:35:21.512Z,4160.00
2023-03-16T12:36:21.511Z,4236.00
2023-03-16T12:37:21.529Z,4228.00
2023-03-16T12:38:21.543Z,4236.00
2023-03-16T12:39:21.561Z,4236.00
2023-03-16T12:40:21.569Z,4228.00